Time;durP1;ratioP1;P1;durP2;ratioP2;P2;SDS_P1;SDS_P2;PMS_P1;PMS_P2;Temp;Humidity;BMP_temperature;BMP_pressure;BME280_temperature;BME280_humidity;BME280_pressure;Samples;Min_cycle;Max_cycle;Signal;HPM_P1;HPM_P2
2022/08/01 00:03:25;;;;;;;3.13;2.83;;;;;;;20.47;62.74;96739.19;10225051;29;20056;-57
2022/08/01 00:08:44;;;;;;;3.92;2.80;;;;;;;20.48;62.66;96750.81;10225497;29;20476;-58
2022/08/01 00:14:03;;;;;;;3.20;2.90;;;;;;;20.45;62.63;96748.78;10237874;28;20051;-58
2022/08/01 00:19:23;;;;;;;3.20;2.90;;;;;;;20.42;63.08;96736.69;10225634;29;20416;-57
2022/08/01 00:24:42;;;;;;;4.35;3.00;;;;;;;20.41;63.11;96726.22;10225329;29;20107;-58
2022/08/01 00:30:01;;;;;;;3.30;3.00;;;;;;;20.40;63.44;96719.19;10225265;29;20059;-58
2022/08/01 00:35:21;;;;;;;3.00;2.80;;;;;;;20.37;63.67;96717.16;10218572;29;20090;-58
2022/08/01 00:40:41;;;;;;;3.72;3.17;;;;;;;20.34;63.12;96718.59;10224769;29;20059;-57
2022/08/01 00:46:00;;;;;;;3.50;3.20;;;;;;;20.32;62.86;96712.72;10224348;29;20051;-58
2022/08/01 00:51:19;;;;;;;3.95;3.53;;;;;;;20.31;62.65;96709.25;10211663;29;20063;-58
2022/08/01 00:56:39;;;;;;;3.45;3.15;;;;;;;20.30;62.44;96702.25;10233899;29;20070;-57
2022/08/01 01:01:58;;;;;;;5.07;3.28;;;;;;;20.28;62.56;96701.78;10223577;29;20048;-57
2022/08/01 01:07:24;;;;;;;4.10;3.20;;;;;;;20.27;62.40;96702.91;10218297;29;20103;-57
2022/08/01 01:13:09;;;;;;;5.35;3.22;;;;;;;20.23;62.90;96699.28;10203794;29;20056;-58
2022/08/01 01:18:36;;;;;;;3.40;3.00;;;;;;;20.20;62.65;96691.81;10217122;29;20067;-58
2022/08/01 01:24:04;;;;;;;4.53;3.38;;;;;;;20.19;62.50;96692.16;10190688;29;20059;-58
2022/08/01 01:29:28;;;;;;;3.85;3.40;;;;;;;20.17;62.56;96697.91;10203191;29;20064;-57
2022/08/01 01:34:49;;;;;;;4.18;3.20;;;;;;;20.15;62.47;96700.94;10202832;29;20055;-58
2022/08/01 01:40:11;;;;;;;3.65;3.35;;;;;;;20.11;62.41;96699.22;10202235;29;20512;-58
2022/08/01 01:45:30;;;;;;;4.55;3.10;;;;;;;20.10;62.02;96695.72;10229375;28;20052;-58
2022/08/01 01:50:51;;;;;;;3.65;3.35;;;;;;;20.11;62.32;96688.38;10213674;29;20107;-58
2022/08/01 01:56:11;;;;;;;3.80;3.15;;;;;;;20.11;62.39;96685.69;10202667;29;20059;-58
2022/08/01 02:01:32;;;;;;;8.15;3.33;;;;;;;20.11;62.51;96678.38;10202774;29;20063;-58
2022/08/01 02:06:56;;;;;;;4.20;3.33;;;;;;;20.10;62.67;96676.00;10201182;29;20419;-58
2022/08/01 02:12:17;;;;;;;4.00;3.60;;;;;;;20.11;62.87;96677.56;10228632;28;20052;-57
2022/08/01 02:17:41;;;;;;;4.03;3.60;;;;;;;20.09;63.14;96679.81;10204741;29;20066;-58
2022/08/01 02:23:06;;;;;;;4.35;3.40;;;;;;;20.06;63.11;96680.50;10214866;29;20048;-58
2022/08/01 02:28:31;;;;;;;4.55;3.40;;;;;;;20.07;63.05;96676.66;10214326;29;20067;-58
2022/08/01 02:33:59;;;;;;;3.70;3.40;;;;;;;20.06;63.53;96670.47;10221738;28;20059;-57
2022/08/01 02:39:21;;;;;;;5.13;3.70;;;;;;;20.05;63.65;96663.50;10227103;29;20051;-56
2022/08/01 02:44:42;;;;;;;4.05;3.35;;;;;;;20.03;63.45;96664.91;10214206;29;20062;-58
2022/08/01 02:50:02;;;;;;;3.90;3.50;;;;;;;20.03;63.70;96675.72;10225449;28;20503;-58
2022/08/01 02:55:23;;;;;;;4.75;3.85;;;;;;;20.02;63.77;96679.56;10214289;29;20116;-58
2022/08/01 03:00:45;;;;;;;4.03;3.28;;;;;;;19.99;63.81;96670.19;10223814;29;20063;-58
2022/08/01 03:06:05;;;;;;;3.97;3.58;;;;;;;20.00;63.80;96677.19;10187004;29;20495;-58
2022/08/01 03:11:26;;;;;;;3.70;3.40;;;;;;;19.99;63.90;96680.22;10211911;28;20392;-58
2022/08/01 03:16:46;;;;;;;3.75;3.45;;;;;;;19.95;64.18;96675.50;10220985;28;20060;-58
2022/08/01 03:22:08;;;;;;;3.60;3.30;;;;;;;19.98;64.15;96682.13;10197663;29;20071;-58
2022/08/01 03:27:28;;;;;;;4.18;3.75;;;;;;;19.98;64.28;96684.06;10213154;29;20055;-58
2022/08/01 03:32:48;;;;;;;4.20;3.80;;;;;;;19.95;64.35;96683.59;10211408;28;20052;-58
2022/08/01 03:38:10;;;;;;;4.88;3.70;;;;;;;19.94;64.16;96684.72;10212308;29;20503;-58
2022/08/01 03:43:35;;;;;;;4.25;3.65;;;;;;;19.94;64.41;96684.72;10215135;28;20562;-58
2022/08/01 03:48:55;;;;;;;4.03;3.60;;;;;;;19.92;64.36;96678.84;10213226;29;20051;-58
2022/08/01 03:54:17;;;;;;;4.90;3.60;;;;;;;19.91;64.82;96677.25;10210902;29;20059;-58
2022/08/01 03:59:38;;;;;;;5.05;3.97;;;;;;;19.90;65.01;96681.09;10211560;29;20059;-58
2022/08/01 04:04:58;;;;;;;5.50;4.00;;;;;;;19.89;65.09;96684.09;10212559;29;20095;-58
2022/08/01 04:10:18;;;;;;;4.38;3.83;;;;;;;19.87;65.32;96679.03;10223991;29;20420;-58
2022/08/01 04:15:37;;;;;;;4.10;3.80;;;;;;;19.91;65.44;96679.94;10211208;29;20063;-57
2022/08/01 04:20:56;;;;;;;4.93;3.65;;;;;;;19.94;65.74;96682.00;10202981;29;20455;-57
2022/08/01 04:26:16;;;;;;;4.13;3.65;;;;;;;19.95;65.63;96686.31;10211162;29;20504;-58
2022/08/01 04:31:36;;;;;;;6.07;3.65;;;;;;;19.95;65.62;96683.59;10191117;29;20114;-58
2022/08/01 04:36:55;;;;;;;4.30;3.90;;;;;;;19.97;65.99;96680.53;10207598;29;20500;-59
2022/08/01 04:42:15;;;;;;;4.00;3.70;;;;;;;19.95;66.03;96680.91;10204711;29;20059;-58
2022/08/01 04:47:39;;;;;;;4.63;4.03;;;;;;;19.95;65.86;96685.50;10218906;29;20527;-58
2022/08/01 04:52:58;;;;;;;4.43;3.92;;;;;;;19.95;65.86;96686.31;10218671;29;20063;-58
2022/08/01 04:58:18;;;;;;;4.22;3.92;;;;;;;19.99;65.80;96691.03;10231026;29;20060;-57
2022/08/01 05:03:37;;;;;;;5.32;4.00;;;;;;;20.00;65.59;96687.22;10218218;29;20060;-57
2022/08/01 05:08:57;;;;;;;5.18;4.05;;;;;;;20.02;65.95;96690.38;10230897;28;20499;-57
2022/08/01 05:14:16;;;;;;;4.95;3.88;;;;;;;20.03;65.79;96689.25;10229445;28;20102;-57
2022/08/01 05:19:37;;;;;;;3.90;3.60;;;;;;;20.04;65.54;96696.25;10216965;29;20063;-57
2022/08/01 05:24:56;;;;;;;4.15;3.83;;;;;;;20.05;65.71;96692.41;10217320;29;20079;-57
2022/08/01 05:30:16;;;;;;;5.63;4.00;;;;;;;20.06;65.78;96694.00;10216737;29;20534;-58
2022/08/01 05:35:35;;;;;;;4.13;3.72;;;;;;;20.06;65.65;96691.31;10217665;29;20059;-56
2022/08/01 05:40:54;;;;;;;4.75;3.85;;;;;;;20.07;65.06;96699.09;10228584;28;20055;-58
2022/08/01 05:46:14;;;;;;;5.25;3.72;;;;;;;20.08;64.54;96699.88;10216268;29;20075;-58
2022/08/01 05:51:33;;;;;;;3.88;3.58;;;;;;;20.09;64.19;96691.44;10216565;29;20097;-58
2022/08/01 05:56:53;;;;;;;5.32;3.70;;;;;;;20.09;63.96;96699.56;10215616;29;20063;-57
2022/08/01 06:02:12;;;;;;;4.05;3.65;;;;;;;20.09;63.71;96702.25;10215642;29;20051;-58
2022/08/01 06:07:32;;;;;;;3.88;3.58;;;;;;;20.12;63.43;96714.31;10215826;29;20107;-57
2022/08/01 06:12:51;;;;;;;3.70;3.40;;;;;;;20.11;63.35;96710.84;10215863;29;20059;-57
2022/08/01 06:18:10;;;;;;;4.85;3.72;;;;;;;20.12;63.24;96711.63;10219919;29;20114;-57
2022/08/01 06:23:30;;;;;;;3.70;3.40;;;;;;;20.12;63.24;96719.72;10228183;28;20412;-58
2022/08/01 06:28:49;;;;;;;4.13;3.67;;;;;;;20.13;63.31;96721.31;10226659;29;20056;-58
2022/08/01 06:34:09;;;;;;;5.15;3.60;;;;;;;20.14;63.42;96720.97;10227501;28;20055;-57
2022/08/01 06:39:28;;;;;;;3.70;3.38;;;;;;;20.17;63.41;96732.25;10214851;29;20087;-58
2022/08/01 06:44:48;;;;;;;3.65;3.35;;;;;;;20.16;63.42;96731.47;10227142;28;20039;-57
2022/08/01 06:50:08;;;;;;;3.55;3.25;;;;;;;20.17;63.52;96726.84;10227003;28;20095;-57
2022/08/01 06:55:28;;;;;;;4.95;3.20;;;;;;;20.18;63.54;96728.44;10213317;29;20052;-56
2022/08/01 07:00:47;;;;;;;3.50;3.20;;;;;;;20.18;63.50;96723.81;10222499;28;20092;-58
2022/08/01 07:06:07;;;;;;;3.58;3.28;;;;;;;20.20;63.53;96729.69;10226085;28;20415;-57
2022/08/01 07:11:26;;;;;;;4.70;3.47;;;;;;;20.20;63.47;96732.41;10226439;28;20496;-58
2022/08/01 07:16:46;;;;;;;3.45;3.15;;;;;;;20.22;63.28;96742.91;10212749;29;20075;-58
2022/08/01 07:22:05;;;;;;;3.28;2.97;;;;;;;20.22;63.45;96743.69;10212654;29;20059;-58
2022/08/01 07:27:25;;;;;;;3.17;2.88;;;;;;;20.22;63.33;96746.38;10201412;29;20063;-57
2022/08/01 07:32:44;;;;;;;3.35;3.05;;;;;;;20.21;63.22;96746.72;10198741;29;20060;-58
2022/08/01 07:38:05;;;;;;;3.47;3.03;;;;;;;20.23;63.14;96750.69;10212234;29;20063;-58
2022/08/01 07:43:24;;;;;;;2.95;2.72;;;;;;;20.24;63.02;96748.78;10212804;29;20385;-58
2022/08/01 07:48:43;;;;;;;3.50;2.67;;;;;;;20.23;62.98;96750.69;10202385;29;20099;-58
2022/08/01 07:54:03;;;;;;;3.20;2.90;;;;;;;20.24;62.97;96751.47;10212682;29;20078;-57
2022/08/01 07:59:23;;;;;;;3.00;2.72;;;;;;;20.24;62.81;96763.06;10209227;29;20110;-58
2022/08/01 08:04:43;;;;;;;4.25;2.70;;;;;;;20.26;62.84;96762.75;10200816;29;20055;-58
2022/08/01 08:10:03;;;;;;;3.25;2.80;;;;;;;20.25;62.81;96761.19;10220430;29;20456;-58
2022/08/01 08:15:22;;;;;;;3.42;3.13;;;;;;;20.25;62.89;96759.25;10230916;29;20447;-58
2022/08/01 08:20:43;;;;;;;2.80;2.60;;;;;;;20.25;62.74;96763.88;10219187;29;20500;-58
2022/08/01 08:26:03;;;;;;;2.70;2.50;;;;;;;20.26;62.83;96770.88;10219024;29;20496;-58
2022/08/01 08:31:22;;;;;;;3.15;2.90;;;;;;;20.26;62.88;96766.25;10226344;29;20055;-58
2022/08/01 08:36:41;;;;;;;3.00;2.70;;;;;;;20.27;62.89;96761.66;10222783;29;20060;-57
2022/08/01 08:42:01;;;;;;;2.63;2.42;;;;;;;20.27;63.04;96767.84;10218907;29;20063;-58
2022/08/01 08:47:22;;;;;;;3.08;2.88;;;;;;;20.28;63.11;96774.03;10204159;29;20059;-58
2022/08/01 08:52:43;;;;;;;3.47;2.70;;;;;;;20.28;63.11;96779.44;10218696;29;20138;-58
2022/08/01 08:58:05;;;;;;;3.53;2.85;;;;;;;20.28;63.12;96780.22;10218582;29;20075;-56
2022/08/01 09:03:25;;;;;;;2.92;2.70;;;;;;;20.28;63.08;96776.75;10195474;29;20055;-57
2022/08/01 09:08:44;;;;;;;3.70;2.78;;;;;;;20.29;62.99;96779.13;10218470;29;20063;-58
2022/08/01 09:14:13;;;;;;;4.05;3.10;;;;;;;20.29;63.11;96781.81;10212679;29;20126;-58
2022/08/01 09:19:51;;;;;;;3.55;3.00;;;;;;;20.32;63.60;96788.47;10216988;28;20055;-57
2022/08/01 09:25:10;;;;;;;5.60;3.90;;;;;;;20.34;63.95;96791.66;10210297;29;20056;-58
2022/08/01 09:30:38;;;;;;;7.55;4.68;;;;;;;20.37;64.22;96795.63;10216822;29;20055;-58
2022/08/01 09:35:58;;;;;;;10.43;4.60;;;;;;;20.37;64.19;96798.34;10208666;29;20047;-58
2022/08/01 09:41:17;;;;;;;5.30;3.33;;;;;;;20.37;64.06;96799.13;10216879;29;20059;-59
2022/08/01 09:46:49;;;;;;;3.28;2.80;;;;;;;20.37;63.36;96799.13;10214843;28;20051;-58
2022/08/01 09:52:23;;;;;;;3.13;2.60;;;;;;;20.38;63.24;96806.09;10215640;29;20075;-59
2022/08/01 09:57:55;;;;;;;4.13;2.50;;;;;;;20.39;63.09;96806.91;10199189;29;20061;-59
2022/08/01 10:03:19;;;;;;;2.90;2.70;;;;;;;20.41;63.03;96800.03;10205762;29;20056;-58
2022/08/01 10:08:46;;;;;;;2.83;2.63;;;;;;;20.43;62.80;96797.81;10215337;29;20496;-58
2022/08/01 10:14:07;;;;;;;3.00;2.40;;;;;;;20.45;62.68;96800.19;10215259;29;20055;-58
2022/08/01 10:19:28;;;;;;;2.90;2.20;;;;;;;20.46;62.58;96809.88;10214193;29;20060;-58
2022/08/01 10:24:48;;;;;;;2.60;2.40;;;;;;;20.45;62.66;96803.69;10216082;29;20060;-58
2022/08/01 10:30:09;;;;;;;2.55;2.33;;;;;;;20.45;62.72;96808.31;10215497;29;20083;-58
2022/08/01 10:35:29;;;;;;;2.38;2.17;;;;;;;20.45;62.70;96802.88;10213958;29;20056;-57
2022/08/01 10:40:49;;;;;;;2.97;2.45;;;;;;;20.45;62.61;96803.69;10214086;29;20056;-58
2022/08/01 10:46:09;;;;;;;2.60;2.40;;;;;;;20.45;62.66;96802.88;10213768;29;20059;-58
2022/08/01 10:51:29;;;;;;;3.08;2.40;;;;;;;20.44;62.76;96798.59;10213660;29;20507;-58
2022/08/01 10:56:49;;;;;;;2.53;2.30;;;;;;;20.44;62.77;96810.19;10213952;29;20439;-58
2022/08/01 11:02:09;;;;;;;3.92;2.60;;;;;;;20.45;62.72;96795.56;10213314;29;20060;-58
2022/08/01 11:07:43;;;;;;;3.22;2.30;;;;;;;20.46;62.67;96790.94;10211654;29;20058;-56
2022/08/01 11:13:07;;;;;;;6.03;2.28;;;;;;;20.45;62.72;96787.44;10213609;29;20068;-58
2022/08/01 11:18:26;;;;;;;3.47;2.33;;;;;;;20.45;62.79;96778.53;10202057;29;20519;-58
2022/08/01 11:23:51;;;;;;;4.90;2.90;;;;;;;20.47;62.92;96777.06;10213123;29;20047;-58
2022/08/01 11:29:16;;;;;;;5.68;2.60;;;;;;;20.47;62.87;96777.06;10201750;29;20067;-58
2022/08/01 11:34:55;;;;;;;3.67;2.40;;;;;;;20.47;62.96;96774.38;10225682;29;20051;-58
2022/08/01 11:40:22;;;;;;;3.40;2.40;;;;;;;20.48;63.08;96772.44;10197898;29;20067;-56
2022/08/01 11:45:51;;;;;;;5.00;2.88;;;;;;;20.47;62.94;96784.41;10213189;29;20056;-58
2022/08/01 11:51:15;;;;;;;4.85;2.50;;;;;;;20.47;63.04;96782.50;10211972;29;20508;-58
2022/08/01 11:56:34;;;;;;;6.78;2.58;;;;;;;20.50;63.09;96786.44;10212573;29;20052;-58
2022/08/01 12:01:54;;;;;;;4.10;2.20;;;;;;;20.50;63.02;96784.53;10212553;29;20056;-58
2022/08/01 12:07:18;;;;;;;3.17;1.90;;;;;;;20.51;63.09;96788.03;10212411;29;20055;-58
2022/08/01 12:12:45;;;;;;;3.25;2.00;;;;;;;20.52;63.11;96786.91;10212586;29;20097;-56
2022/08/01 12:18:06;;;;;;;3.72;2.00;;;;;;;20.50;63.06;96781.84;10202691;29;20060;-58
2022/08/01 12:23:26;;;;;;;2.65;1.98;;;;;;;20.50;63.10;96781.84;10212207;29;20055;-57
2022/08/01 12:28:45;;;;;;;3.22;2.00;;;;;;;20.51;63.18;96788.81;10211804;29;20551;-58
2022/08/01 12:34:30;;;;;;;2.97;1.85;;;;;;;20.53;63.36;96786.56;10236203;29;20583;-58
2022/08/01 12:39:49;;;;;;;3.45;1.70;;;;;;;20.54;63.46;96782.75;10212012;29;20056;-57
2022/08/01 12:45:11;;;;;;;2.15;1.38;;;;;;;20.54;63.54;96769.22;10197530;29;20059;-57
2022/08/01 12:50:31;;;;;;;2.70;1.52;;;;;;;20.56;63.65;96787.81;10196382;29;20075;-58
2022/08/01 12:55:53;;;;;;;1.20;1.10;;;;;;;20.57;63.59;96802.94;10218544;29;20051;-58
2022/08/01 13:01:13;;;;;;;1.15;1.05;;;;;;;20.57;63.56;96802.94;10218872;29;20056;-58
2022/08/01 13:06:35;;;;;;;1.48;1.13;;;;;;;20.56;63.65;96790.53;10207718;29;20077;-58
2022/08/01 13:11:55;;;;;;;1.70;1.08;;;;;;;20.58;63.68;96793.72;10218784;29;20063;-58
2022/08/01 13:17:30;;;;;;;1.30;1.10;;;;;;;20.57;63.67;96780.50;10217592;29;20071;-57
2022/08/01 13:22:50;;;;;;;1.35;1.05;;;;;;;20.58;63.57;96782.09;10222507;28;20048;-58
2022/08/01 13:28:22;;;;;;;1.50;1.40;;;;;;;20.57;63.91;96781.28;10230150;28;20110;-57
2022/08/01 13:33:47;;;;;;;2.75;1.17;;;;;;;20.60;63.87;96769.03;10229835;28;20070;-58
2022/08/01 13:44:45;;;;;;;2.33;1.33;;;;;;;20.45;59.03;96773.91;10216239;29;20071;-57
2022/08/01 13:50:06;;;;;;;1.27;1.10;;;;;;;20.29;56.02;96762.88;10214706;28;20052;-57
2022/08/01 13:55:25;;;;;;;2.13;1.10;;;;;;;20.18;54.72;96769.03;10216665;29;20062;-57
2022/08/01 14:00:45;;;;;;;1.75;1.00;;;;;;;20.06;52.34;96767.81;10210750;29;20079;-57
2022/08/01 14:06:05;;;;;;;1.23;1.00;;;;;;;19.99;51.52;96762.13;10214232;29;20056;-58
2022/08/01 14:11:24;;;;;;;0.88;0.85;;;;;;;19.92;49.66;96776.16;10215060;29;20519;-57
2022/08/01 14:16:46;;;;;;;0.93;0.93;;;;;;;19.82;48.71;96778.47;10215419;29;20059;-57
2022/08/01 14:22:06;;;;;;;1.67;1.30;;;;;;;19.71;47.07;96788.81;10228370;28;20051;-58
2022/08/01 14:27:25;;;;;;;1.00;1.00;;;;;;;19.64;46.39;96788.50;10215346;29;20064;-58
2022/08/01 14:32:45;;;;;;;1.00;0.90;;;;;;;19.66;47.87;96789.78;10226949;29;20451;-58
2022/08/01 14:38:05;;;;;;;0.75;0.75;;;;;;;19.67;48.15;96777.06;10215256;29;20106;-58
2022/08/01 14:43:26;;;;;;;2.17;0.85;;;;;;;19.70;49.26;96784.53;10214496;29;20064;-57
2022/08/01 14:48:45;;;;;;;1.15;1.08;;;;;;;19.70;49.26;96784.53;10207909;29;20499;-57
2022/08/01 14:54:05;;;;;;;1.00;1.00;;;;;;;19.84;52.09;96790.53;10214329;29;20078;-57
2022/08/01 14:59:24;;;;;;;0.70;0.70;;;;;;;19.95;53.27;96777.41;10213717;29;20060;-57
2022/08/01 15:04:45;;;;;;;0.60;0.60;;;;;;;20.04;54.18;96771.97;10210907;28;20079;-57
2022/08/01 15:10:05;;;;;;;0.82;0.80;;;;;;;20.10;54.67;96784.97;10226396;28;20044;-57
2022/08/01 15:15:26;;;;;;;1.67;0.80;;;;;;;20.14;55.10;96779.69;10211930;29;20063;-57
2022/08/01 15:20:45;;;;;;;0.88;0.70;;;;;;;20.19;55.48;96773.28;10213586;29;20409;-56
2022/08/01 15:26:09;;;;;;;1.65;0.88;;;;;;;20.22;56.28;96775.34;10203215;29;20075;-58
2022/08/01 15:31:28;;;;;;;1.25;0.70;;;;;;;20.25;56.68;96780.91;10220041;29;20066;-57
2022/08/01 15:36:47;;;;;;;0.70;0.70;;;;;;;20.27;56.93;96777.88;10215410;29;20059;-57
2022/08/01 15:42:09;;;;;;;2.05;1.00;;;;;;;20.28;57.26;96793.75;10225248;28;20444;-57
2022/08/01 15:47:28;;;;;;;1.60;0.90;;;;;;;20.29;58.14;96787.25;10212613;29;20102;-57
2022/08/01 15:52:47;;;;;;;1.58;0.90;;;;;;;20.32;58.92;96789.28;10212367;29;20067;-57
2022/08/01 15:58:07;;;;;;;3.20;1.00;;;;;;;20.33;59.26;96787.38;10224623;29;20087;-58
2022/08/01 16:03:27;;;;;;;1.50;1.17;;;;;;;20.33;59.44;96788.16;10213230;29;20135;-57
2022/08/01 16:08:47;;;;;;;3.05;1.00;;;;;;;20.33;59.37;96790.88;10213267;29;20064;-57
2022/08/01 16:14:06;;;;;;;0.88;0.88;;;;;;;20.33;59.21;96790.88;10212316;29;20099;-57
2022/08/01 16:19:25;;;;;;;2.15;0.90;;;;;;;20.33;59.28;96800.91;10201108;29;20063;-56
2022/08/01 16:24:45;;;;;;;1.48;0.88;;;;;;;20.33;59.28;96793.56;10224774;29;20094;-57
2022/08/01 16:30:05;;;;;;;0.80;0.80;;;;;;;20.33;59.00;96809.03;10218538;29;20083;-57
2022/08/01 16:35:24;;;;;;;2.78;0.90;;;;;;;20.33;58.54;96815.22;10219717;29;20060;-58
2022/08/01 16:40:45;;;;;;;1.25;0.73;;;;;;;20.33;58.46;96814.44;10232147;28;20051;-57
2022/08/01 16:46:06;;;;;;;1.27;0.70;;;;;;;20.32;58.37;96832.56;10231691;28;20066;-58
2022/08/01 16:51:26;;;;;;;0.80;0.80;;;;;;;20.34;58.26;96834.94;10204490;29;20075;-58
2022/08/01 16:56:46;;;;;;;3.17;0.75;;;;;;;20.34;58.18;96843.06;10208265;29;20114;-55
2022/08/01 17:02:05;;;;;;;0.98;0.60;;;;;;;20.37;58.34;96863.28;10218639;29;20055;-55
2022/08/01 17:07:26;;;;;;;3.40;0.90;;;;;;;20.39;59.39;96877.25;10217552;29;20060;-55
2022/08/01 17:12:45;;;;;;;1.88;1.00;;;;;;;20.40;61.25;96868.00;10218071;29;20464;-55
2022/08/01 17:18:05;;;;;;;2.63;1.13;;;;;;;20.40;61.77;96863.38;10217598;29;20444;-56
2022/08/01 17:23:25;;;;;;;1.95;0.85;;;;;;;20.39;61.78;96848.28;10217761;29;20059;-57
2022/08/01 17:28:45;;;;;;;2.22;0.85;;;;;;;20.39;61.80;96850.22;10217537;29;20064;-54
2022/08/01 17:34:04;;;;;;;3.50;0.77;;;;;;;20.40;61.78;96857.97;10229923;29;20059;-55
2022/08/01 17:39:24;;;;;;;4.88;1.20;;;;;;;20.40;61.82;96871.50;10228852;28;20051;-56
2022/08/01 17:44:43;;;;;;;4.80;0.88;;;;;;;20.41;61.84;96875.03;10226392;29;20444;-58
2022/08/01 17:50:05;;;;;;;2.55;0.80;;;;;;;20.40;61.80;96865.31;10216156;29;20060;-57
2022/08/01 17:55:24;;;;;;;0.98;0.70;;;;;;;20.40;61.54;96849.06;10215725;29;20538;-58
2022/08/01 18:00:44;;;;;;;1.75;0.65;;;;;;;20.41;61.59;96856.09;10212246;29;20063;-57
2022/08/01 18:06:04;;;;;;;1.63;0.82;;;;;;;20.42;61.63;96882.00;10215945;29;20071;-56
2022/08/01 18:11:23;;;;;;;2.42;1.00;;;;;;;20.40;61.73;96886.94;10215915;29;20055;-58
2022/08/01 18:16:43;;;;;;;1.95;0.90;;;;;;;20.43;62.43;96886.31;10222941;28;20067;-57
2022/08/01 18:22:03;;;;;;;2.28;0.80;;;;;;;20.47;62.66;96884.53;10215109;29;20079;-57
2022/08/01 18:27:23;;;;;;;3.35;0.80;;;;;;;20.50;62.75;96873.84;10214696;29;20055;-56
2022/08/01 18:32:42;;;;;;;1.80;0.82;;;;;;;20.54;62.62;96887.50;10213412;29;20056;-55
2022/08/01 18:38:01;;;;;;;0.95;0.75;;;;;;;20.57;62.68;96891.47;10227379;29;20090;-57
2022/08/01 18:43:21;;;;;;;1.58;0.80;;;;;;;20.55;62.58;96903.41;10227047;28;20052;-56
2022/08/01 18:48:42;;;;;;;2.30;0.70;;;;;;;20.53;62.98;96902.16;10214357;29;20094;-57
2022/08/01 18:54:02;;;;;;;4.43;0.90;;;;;;;20.51;62.89;96917.94;10216787;28;20084;-56
2022/08/01 18:59:23;;;;;;;0.95;0.80;;;;;;;20.50;64.04;96921.75;10207447;29;20063;-58
2022/08/01 19:04:42;;;;;;;1.33;0.93;;;;;;;20.49;64.78;96941.81;10213276;29;20052;-56
2022/08/01 19:10:03;;;;;;;0.98;0.85;;;;;;;20.47;65.08;96944.06;10235436;28;20122;-56
2022/08/01 19:15:22;;;;;;;1.10;1.00;;;;;;;20.48;65.33;96951.06;10213395;29;20078;-57
2022/08/01 19:20:43;;;;;;;1.23;0.88;;;;;;;20.47;65.64;96965.72;10213814;29;20408;-57
2022/08/01 19:26:06;;;;;;;0.95;0.90;;;;;;;20.45;65.81;96973.38;10226143;28;20118;-56
2022/08/01 19:31:26;;;;;;;0.73;0.73;;;;;;;20.43;66.16;96976.41;10212561;29;20503;-56
2022/08/01 19:36:50;;;;;;;1.45;0.93;;;;;;;20.44;66.30;96988.78;10213023;29;20071;-57
2022/08/01 19:42:11;;;;;;;1.05;0.95;;;;;;;20.43;66.45;96994.56;10213205;29;20419;-57
2022/08/01 19:47:31;;;;;;;2.70;1.00;;;;;;;20.43;66.37;97002.66;10212677;29;20059;-57
2022/08/01 19:52:51;;;;;;;2.03;0.93;;;;;;;20.43;66.05;96999.97;10212036;29;20495;-56
2022/08/01 19:58:14;;;;;;;2.58;0.93;;;;;;;20.43;65.78;96997.25;10200742;29;20111;-58
2022/08/01 20:03:34;;;;;;;1.70;0.77;;;;;;;20.44;65.60;97009.66;10229597;28;20040;-58
2022/08/01 20:08:53;;;;;;;3.10;1.00;;;;;;;20.43;65.44;97008.06;10220016;29;20136;-57
2022/08/01 20:14:17;;;;;;;1.17;1.05;;;;;;;20.44;65.15;97015.06;10205264;29;20059;-56
2022/08/01 20:19:37;;;;;;;3.58;1.30;;;;;;;20.45;65.38;97012.03;10209945;29;20064;-56
2022/08/01 20:25:00;;;;;;;1.98;1.30;;;;;;;20.45;65.13;97013.97;10232316;28;20055;-56
2022/08/01 20:30:21;;;;;;;1.35;1.25;;;;;;;20.44;65.12;97015.06;10219234;29;20508;-57
2022/08/01 20:35:40;;;;;;;1.73;1.20;;;;;;;20.44;65.09;97020.47;10205313;29;20056;-57
2022/08/01 20:41:02;;;;;;;1.38;1.27;;;;;;;20.44;65.00;97017.78;10230557;28;20051;-57
2022/08/01 20:46:26;;;;;;;2.90;1.30;;;;;;;20.45;65.03;97016.66;10218553;29;20079;-56
2022/08/01 20:51:47;;;;;;;3.25;1.38;;;;;;;20.45;65.08;97019.38;10205449;29;20500;-58
2022/08/01 20:57:24;;;;;;;1.88;1.20;;;;;;;20.44;64.88;97021.25;10218758;29;20058;-58
2022/08/01 21:02:55;;;;;;;1.25;1.10;;;;;;;20.43;64.88;97011.56;10206434;29;20437;-58
2022/08/01 21:08:33;;;;;;;1.45;1.35;;;;;;;20.45;64.72;97014.75;10208940;29;20059;-57
2022/08/01 21:13:54;;;;;;;2.40;1.30;;;;;;;20.44;64.78;97010.44;10229467;28;20420;-58
2022/08/01 21:19:19;;;;;;;1.40;1.30;;;;;;;20.45;64.65;97016.66;10217336;29;20074;-56
2022/08/01 21:24:53;;;;;;;1.88;1.42;;;;;;;20.44;64.71;97017.78;10230649;28;20047;-58
2022/08/01 21:30:13;;;;;;;1.67;1.42;;;;;;;20.43;64.67;97010.78;10230164;28;20048;-58
2022/08/01 21:35:33;;;;;;;2.03;1.15;;;;;;;20.44;64.80;97001.53;10216902;29;20197;-58
2022/08/01 21:40:54;;;;;;;2.80;1.20;;;;;;;20.43;64.78;97008.06;10217224;29;20052;-58
2022/08/01 21:46:15;;;;;;;1.20;1.08;;;;;;;20.43;64.64;97016.19;10202032;29;20051;-58
2022/08/01 21:51:42;;;;;;;1.63;1.20;;;;;;;20.43;64.67;97024.31;10216419;29;20063;-58
2022/08/01 21:57:22;;;;;;;1.88;1.10;;;;;;;20.44;64.57;97028.59;10216710;29;20067;-58
2022/08/01 22:03:00;;;;;;;1.40;1.30;;;;;;;20.43;64.63;97035.13;10215335;29;20415;-58
2022/08/01 22:08:35;;;;;;;1.60;1.27;;;;;;;20.42;64.57;97034.31;10211017;29;20059;-58
2022/08/01 22:13:57;;;;;;;1.40;1.30;;;;;;;20.42;64.52;97036.25;10216009;29;20056;-56
2022/08/01 22:19:17;;;;;;;2.33;1.42;;;;;;;20.43;64.45;97045.97;10206411;29;20487;-57
2022/08/01 22:24:36;;;;;;;1.75;1.25;;;;;;;20.41;64.39;97042.78;10214481;29;20052;-58
2022/08/01 22:30:05;;;;;;;2.08;1.30;;;;;;;20.42;64.34;97049.78;10215369;29;20504;-59
2022/08/01 22:35:25;;;;;;;1.33;1.10;;;;;;;20.41;64.35;97048.19;10220867;28;20059;-58
2022/08/01 22:40:49;;;;;;;1.17;1.00;;;;;;;20.41;64.33;97059.03;10214969;29;20066;-58
2022/08/01 22:46:11;;;;;;;1.85;1.20;;;;;;;20.41;64.22;97059.03;10215000;29;20056;-58
2022/08/01 22:51:42;;;;;;;0.93;0.93;;;;;;;20.40;64.13;97062.84;10227030;28;20055;-58
2022/08/01 22:57:04;;;;;;;0.82;0.82;;;;;;;20.40;64.05;97073.66;10214247;29;20052;-58
2022/08/01 23:02:25;;;;;;;1.05;0.95;;;;;;;20.39;63.90;97070.16;10214417;29;20063;-57
2022/08/01 23:07:49;;;;;;;1.33;0.93;;;;;;;20.39;63.89;97067.47;10212539;29;20098;-58
2022/08/01 23:13:10;;;;;;;0.95;0.88;;;;;;;20.40;63.82;97060.13;10225947;28;20048;-58
2022/08/01 23:18:30;;;;;;;1.30;0.77;;;;;;;20.38;63.85;97059.66;10199242;29;20067;-58
2022/08/01 23:23:49;;;;;;;1.42;0.70;;;;;;;20.39;63.80;97064.75;10212910;29;20067;-58
2022/08/01 23:29:09;;;;;;;2.17;0.70;;;;;;;20.39;63.78;97059.34;10199150;29;20059;-58
2022/08/01 23:34:29;;;;;;;0.77;0.70;;;;;;;20.39;63.77;97062.03;10225295;28;20056;-58
2022/08/01 23:39:48;;;;;;;2.20;0.70;;;;;;;20.39;63.74;97061.25;10212453;29;20472;-58
2022/08/01 23:45:08;;;;;;;1.20;0.70;;;;;;;20.39;63.79;97063.97;10225725;28;20048;-58
2022/08/01 23:50:27;;;;;;;1.55;0.90;;;;;;;20.38;63.81;97060.44;10225507;29;20407;-58
2022/08/01 23:55:47;;;;;;;1.00;0.70;;;;;;;20.38;63.86;97054.25;10212179;29;20078;-58
